Time;durP1;ratioP1;P1;durP2;ratioP2;P2;SDS_P1;SDS_P2;PMS_P1;PMS_P2;Temp;Humidity;BMP_temperature;BMP_pressure;BME280_temperature;BME280_humidity;BME280_pressure;Samples;Min_cycle;Max_cycle;Signal;HPM_P1;HPM_P2
2022/05/24 00:02:05;;;;;;;163.88;67.65;;;;;;;12.67;100.00;100017.94;4917430;29;20028;-44
2022/05/24 00:04:31;;;;;;;163.68;65.88;;;;;;;12.64;100.00;100011.03;4917308;29;20067;-44
2022/05/24 00:06:57;;;;;;;147.00;63.42;;;;;;;12.64;100.00;100018.78;4916954;29;20063;-44
2022/05/24 00:09:22;;;;;;;138.00;59.30;;;;;;;12.58;100.00;100005.81;4917302;29;20080;-43
2022/05/24 00:11:48;;;;;;;128.23;55.25;;;;;;;12.52;100.00;100004.06;4917402;29;20484;-43
2022/05/24 00:14:13;;;;;;;134.07;54.25;;;;;;;12.48;100.00;100001.41;4916719;29;20020;-43
2022/05/24 00:16:38;;;;;;;131.48;52.40;;;;;;;12.44;100.00;99999.66;4917362;29;20028;-44
2022/05/24 00:19:04;;;;;;;117.97;50.17;;;;;;;12.37;100.00;99988.41;4916081;29;20135;-44
2022/05/24 00:21:29;;;;;;;115.00;46.33;;;;;;;12.32;100.00;100000.44;4917190;29;20028;-43
2022/05/24 00:23:54;;;;;;;95.43;43.78;;;;;;;12.26;100.00;99995.22;4917187;29;20055;-43
2022/05/24 00:26:31;;;;;;;102.22;44.97;;;;;;;12.20;100.00;100001.19;4916391;29;20063;-43
2022/05/24 00:28:57;;;;;;;103.20;43.63;;;;;;;12.14;100.00;100001.13;4917097;29;20078;-43
2022/05/24 00:31:22;;;;;;;95.10;40.58;;;;;;;12.08;100.00;99999.34;4917303;29;20440;-43
2022/05/24 00:33:47;;;;;;;86.70;40.50;;;;;;;12.06;100.00;100013.09;4916366;29;20064;-43
2022/05/24 00:36:13;;;;;;;84.95;37.67;;;;;;;11.99;100.00;99999.25;4916852;29;20028;-43
2022/05/24 00:38:39;;;;;;;96.97;39.22;;;;;;;11.95;100.00;99998.34;4916899;29;20119;-43
2022/05/24 00:41:27;;;;;;;83.32;38.65;;;;;;;11.94;100.00;99995.72;4916173;29;20020;-43
2022/05/24 00:44:14;;;;;;;89.82;38.08;;;;;;;11.90;100.00;99996.53;4917072;29;20125;-43
2022/05/24 00:46:49;;;;;;;82.45;35.75;;;;;;;11.83;100.00;99995.63;4916754;29;20047;-43
2022/05/24 00:49:22;;;;;;;88.30;38.83;;;;;;;11.79;100.00;100004.19;4916382;29;20020;-43
2022/05/24 00:51:53;;;;;;;82.97;37.25;;;;;;;11.75;100.00;99998.13;4917026;29;20071;-45
2022/05/24 00:54:18;;;;;;;88.93;38.22;;;;;;;11.72;100.00;99995.47;4915944;29;20032;-44
2022/05/24 00:56:46;;;;;;;84.00;39.55;;;;;;;11.70;100.00;100010.09;4916796;29;20095;-44
2022/05/24 00:59:26;;;;;;;82.65;37.97;;;;;;;11.67;100.00;100008.34;4919084;29;20083;-45
2022/05/24 01:01:51;;;;;;;76.85;35.35;;;;;;;11.64;100.00;99999.72;4922266;29;20028;-43
2022/05/24 01:04:19;;;;;;;82.40;35.17;;;;;;;11.62;100.00;100003.97;4922924;29;20039;-46
2022/05/24 01:06:46;;;;;;;77.60;34.00;;;;;;;11.57;100.00;99998.78;4923233;29;20099;-43
2022/05/24 01:09:20;;;;;;;68.28;33.25;;;;;;;11.54;100.00;99990.97;4922143;29;20028;-46
2022/05/24 01:11:51;;;;;;;73.32;31.80;;;;;;;11.48;100.00;99994.38;4922991;29;20036;-45
2022/05/24 01:14:19;;;;;;;72.28;31.10;;;;;;;11.44;100.00;99997.75;4922760;29;20036;-44
2022/05/24 01:16:44;;;;;;;70.95;30.38;;;;;;;11.42;100.00;99991.69;4922366;29;20384;-44
2022/05/24 01:19:17;;;;;;;71.35;29.50;;;;;;;11.39;100.00;99994.25;4922489;29;20055;-43
2022/05/24 01:21:43;;;;;;;68.30;29.05;;;;;;;11.35;100.00;99997.66;4922750;29;20084;-43
2022/05/24 01:24:25;;;;;;;66.30;28.85;;;;;;;11.31;100.00;99996.75;4921955;29;20058;-45
2022/05/24 01:26:54;;;;;;;63.67;27.10;;;;;;;11.28;100.00;99990.66;4923079;29;20087;-44
2022/05/24 01:29:21;;;;;;;72.13;26.20;;;;;;;11.25;100.00;99990.63;4922010;29;20075;-43
2022/05/24 01:37:17;;;;;;;54.83;23.85;;;;;;;11.18;100.00;100012.88;4921877;29;20119;-45
2022/05/24 01:39:46;;;;;;;55.55;24.02;;;;;;;11.16;100.00;100012.00;4922929;29;20088;-44
2022/05/24 01:42:12;;;;;;;51.53;22.30;;;;;;;11.12;100.00;100015.41;4922320;29;20040;-44
2022/05/24 01:44:47;;;;;;;56.92;22.52;;;;;;;11.11;100.00;100016.25;4922196;29;20024;-46
2022/05/24 01:47:12;;;;;;;51.20;21.48;;;;;;;11.06;100.00;100021.31;4922377;29;20043;-43
2022/05/24 01:49:42;;;;;;;50.95;20.40;;;;;;;11.03;100.00;100013.56;4922616;29;20032;-48
2022/05/24 01:52:13;;;;;;;44.45;20.13;;;;;;;11.00;100.00;100014.38;4921987;29;20084;-46
2022/05/24 01:54:45;;;;;;;53.40;20.52;;;;;;;10.99;100.00;100016.94;4922759;29;20357;-47
2022/05/24 01:57:15;;;;;;;47.15;19.42;;;;;;;10.95;100.00;100022.88;4922210;29;20020;-45
2022/05/24 01:59:43;;;;;;;50.38;18.95;;;;;;;10.93;100.00;100009.09;4922010;29;20127;-44
2022/05/24 02:02:08;;;;;;;47.03;19.55;;;;;;;10.92;100.00;100008.22;4922476;29;20476;-45
2022/05/24 02:04:34;;;;;;;56.33;17.75;;;;;;;10.87;99.85;100004.72;4921861;29;20091;-44
2022/05/24 02:07:18;;;;;;;45.85;18.30;;;;;;;10.84;99.42;100002.09;4922324;29;20034;-44
2022/05/24 02:09:50;;;;;;;45.85;17.58;;;;;;;10.82;99.78;99999.50;4922546;29;20051;-47
2022/05/24 02:12:21;;;;;;;43.88;17.02;;;;;;;10.78;99.40;100005.47;4917893;29;20444;-47
2022/05/24 02:14:58;;;;;;;43.72;16.90;;;;;;;10.75;99.13;100002.81;4919780;29;20055;-46
2022/05/24 02:17:29;;;;;;;42.65;15.82;;;;;;;10.71;99.78;100008.78;4919196;29;20567;-44
2022/05/24 02:19:58;;;;;;;43.88;15.27;;;;;;;10.69;99.57;100013.03;4918894;29;20025;-44
2022/05/24 02:22:26;;;;;;;34.63;14.75;;;;;;;10.70;99.29;100022.50;4919339;29;20032;-44
2022/05/24 02:25:09;;;;;;;43.85;15.07;;;;;;;10.70;99.16;100013.06;4919036;29;20610;-43
2022/05/24 02:27:43;;;;;;;40.53;14.88;;;;;;;10.72;99.11;100018.25;4918949;29;20032;-44
2022/05/24 02:30:09;;;;;;;32.03;13.25;;;;;;;10.74;98.96;100019.13;4919028;29;20531;-44
2022/05/24 02:32:35;;;;;;;35.72;12.30;;;;;;;10.75;98.13;100015.72;4918346;29;20391;-43
2022/05/24 02:35:00;;;;;;;37.22;12.95;;;;;;;10.77;97.71;100008.88;4918880;29;20032;-43
2022/05/24 02:37:25;;;;;;;30.95;11.02;;;;;;;10.79;96.77;100007.16;4919195;29;20024;-45
2022/05/24 02:42:34;;;;;;;31.50;11.00;;;;;;;10.74;97.08;100003.66;4919312;29;20055;-43
2022/05/24 02:45:00;;;;;;;33.38;10.60;;;;;;;10.70;96.60;100010.50;4918895;29;20024;-45
2022/05/24 02:47:25;;;;;;;38.50;11.50;;;;;;;10.67;97.01;100007.84;4918157;29;20039;-44
2022/05/24 02:49:50;;;;;;;33.10;10.07;;;;;;;10.67;97.17;100017.31;4918736;29;20028;-44
2022/05/24 02:52:16;;;;;;;30.52;10.05;;;;;;;10.65;97.42;100017.28;4918581;29;20036;-45
2022/05/24 02:54:41;;;;;;;34.22;10.32;;;;;;;10.67;96.87;100019.88;4918116;29;20043;-43
2022/05/24 02:57:07;;;;;;;28.52;9.80;;;;;;;10.67;96.40;100023.31;4918520;29;20538;-43
2022/05/24 02:59:33;;;;;;;31.35;8.93;;;;;;;10.68;95.78;100022.47;4918570;29;20440;-43
2022/05/24 03:01:58;;;;;;;31.70;9.82;;;;;;;10.69;95.85;100020.75;4917835;29;20039;-45
2022/05/24 03:04:24;;;;;;;27.52;8.15;;;;;;;10.68;95.63;100004.44;4918653;29;20032;-46
2022/05/24 03:09:36;;;;;;;40.53;10.43;;;;;;;10.63;95.69;100005.22;4918183;29;20047;-44
2022/05/24 03:14:53;;;;;;;32.33;9.10;;;;;;;10.56;96.72;100024.00;4917918;29;20035;-44
2022/05/24 03:17:19;;;;;;;29.67;9.82;;;;;;;10.54;96.13;100024.81;4918045;29;20055;-44
2022/05/24 03:19:45;;;;;;;32.58;10.45;;;;;;;10.54;96.32;100019.69;4918264;29;20436;-44
2022/05/24 03:22:11;;;;;;;29.15;9.35;;;;;;;10.56;96.30;100021.41;4916399;29;20031;-45
2022/05/24 03:24:36;;;;;;;22.35;8.55;;;;;;;10.56;96.52;100021.41;4917971;29;20052;-43
2022/05/24 03:27:07;;;;;;;29.60;9.27;;;;;;;10.58;96.79;100028.31;4917775;29;20064;-45
2022/05/24 03:29:33;;;;;;;26.92;9.73;;;;;;;10.61;96.59;100035.25;4917520;29;20027;-44
2022/05/24 03:31:59;;;;;;;27.55;8.95;;;;;;;10.63;96.37;100041.31;4917785;29;20535;-45
2022/05/24 03:34:24;;;;;;;28.27;10.48;;;;;;;10.66;96.25;100038.75;4917885;29;20472;-44
2022/05/24 03:36:49;;;;;;;32.28;9.23;;;;;;;10.69;96.59;100029.38;4917455;29;20035;-44
2022/05/24 03:39:14;;;;;;;35.25;9.65;;;;;;;10.71;96.17;100029.41;4917602;29;20064;-43
2022/05/24 03:41:43;;;;;;;29.15;9.27;;;;;;;10.75;96.69;100033.75;4917529;29;20369;-45
2022/05/24 03:44:09;;;;;;;36.00;10.23;;;;;;;10.77;95.64;100024.34;4917225;29;20031;-43
2022/05/24 03:46:34;;;;;;;38.33;11.93;;;;;;;10.79;96.00;100027.78;4917951;29;20024;-44
2022/05/24 03:49:00;;;;;;;36.40;10.10;;;;;;;10.80;96.07;100024.38;4917323;29;20476;-44
2022/05/24 03:51:25;;;;;;;27.50;10.63;;;;;;;10.81;96.14;100020.97;4917129;29;20088;-44
2022/05/24 03:53:50;;;;;;;38.92;12.80;;;;;;;10.81;95.88;100030.41;4917685;29;20024;-44
2022/05/24 03:56:15;;;;;;;33.60;12.07;;;;;;;10.82;96.31;100038.16;4917170;29;20064;-45
2022/05/24 03:58:41;;;;;;;27.50;12.25;;;;;;;10.83;94.98;100046.75;4916986;29;20096;-45
2022/05/24 04:01:06;;;;;;;35.80;12.25;;;;;;;10.85;95.57;100063.13;4917365;29;20388;-43
2022/05/24 04:03:31;;;;;;;33.72;11.98;;;;;;;10.86;95.37;100055.41;4917516;29;20028;-44
2022/05/24 04:05:58;;;;;;;41.95;12.80;;;;;;;10.88;95.65;100052.84;4916806;29;20024;-43
2022/05/24 04:08:26;;;;;;;34.08;11.55;;;;;;;10.89;95.67;100074.38;4917423;29;20032;-44
2022/05/24 04:11:02;;;;;;;34.78;13.18;;;;;;;10.90;95.55;100086.38;4917153;29;20472;-44
2022/05/24 04:13:27;;;;;;;41.15;14.05;;;;;;;10.89;94.89;100089.81;4917510;29;20068;-45
2022/05/24 04:15:52;;;;;;;35.25;13.73;;;;;;;10.89;94.89;100089.81;4917536;29;20054;-45
2022/05/24 04:18:17;;;;;;;37.72;14.30;;;;;;;10.89;95.17;100097.56;4916033;29;20119;-44
2022/05/24 04:20:43;;;;;;;51.80;15.15;;;;;;;10.87;95.28;100090.66;4917388;29;20043;-45
2022/05/24 04:23:13;;;;;;;36.58;12.25;;;;;;;10.86;94.68;100081.19;4916947;29;20043;-46
2022/05/24 04:25:38;;;;;;;38.33;12.93;;;;;;;10.87;95.08;100075.19;4916501;29;20080;-46
2022/05/24 04:28:04;;;;;;;42.55;13.32;;;;;;;10.83;94.58;100050.22;4917108;29;20044;-44
2022/05/24 04:30:30;;;;;;;33.80;12.75;;;;;;;10.81;94.70;100046.75;4917057;29;20028;-46
2022/05/24 04:32:55;;;;;;;44.65;13.93;;;;;;;10.79;94.91;100052.72;4916498;29;20028;-45
2022/05/24 04:35:21;;;;;;;40.65;13.15;;;;;;;10.78;95.20;100057.00;4916385;29;20024;-43
2022/05/24 04:37:46;;;;;;;32.25;13.20;;;;;;;10.75;95.62;100071.56;4916625;29;20064;-44
2022/05/24 04:40:12;;;;;;;38.97;12.43;;;;;;;10.74;95.53;100090.44;4916108;29;20031;-44
2022/05/24 04:42:38;;;;;;;34.35;12.02;;;;;;;10.73;95.32;100104.16;4917172;29;20040;-47
2022/05/24 04:45:08;;;;;;;28.33;12.60;;;;;;;10.72;95.82;100100.72;4916590;29;20383;-43
2022/05/24 04:47:34;;;;;;;33.67;11.90;;;;;;;10.75;95.85;100103.34;4916211;29;20076;-47
2022/05/24 04:50:02;;;;;;;39.72;12.05;;;;;;;10.74;95.32;100088.72;4916580;29;20115;-45
2022/05/24 04:52:31;;;;;;;33.83;11.93;;;;;;;10.73;95.43;100088.69;4916601;29;20032;-45
2022/05/24 04:54:56;;;;;;;34.33;10.65;;;;;;;10.73;94.96;100104.16;4916276;29;20054;-44
2022/05/24 04:57:22;;;;;;;33.95;11.00;;;;;;;10.73;95.87;100099.00;4916884;29;20056;-46
2022/05/24 04:59:48;;;;;;;29.65;10.23;;;;;;;10.73;95.36;100104.16;4916708;29;20047;-45
2022/05/24 05:02:14;;;;;;;30.80;10.60;;;;;;;10.74;95.44;100117.06;4916026;29;20028;-44
2022/05/24 05:04:39;;;;;;;35.38;11.15;;;;;;;10.73;94.77;100115.34;4916754;29;20028;-46
2022/05/24 05:07:05;;;;;;;27.70;10.45;;;;;;;10.73;94.94;100130.81;4916186;29;20137;-43
2022/05/24 05:09:38;;;;;;;35.83;11.43;;;;;;;10.74;95.00;100123.94;4916283;29;20035;-44
2022/05/24 05:12:08;;;;;;;32.15;10.00;;;;;;;10.76;94.53;100138.59;4916630;29;20047;-44
2022/05/24 05:14:35;;;;;;;32.13;9.45;;;;;;;10.76;94.67;100146.31;4915993;29;20039;-46
2022/05/24 05:17:00;;;;;;;28.48;9.18;;;;;;;10.76;94.32;100146.31;4916283;29;20036;-44
2022/05/24 05:19:26;;;;;;;28.95;9.18;;;;;;;10.78;95.27;100154.97;4916483;29;20046;-43
2022/05/24 05:21:51;;;;;;;41.30;9.23;;;;;;;10.78;94.65;100154.97;4915967;29;20535;-44
2022/05/24 05:24:17;;;;;;;25.70;9.23;;;;;;;10.79;94.43;100148.94;4916280;29;20442;-43
2022/05/24 05:26:42;;;;;;;29.02;8.93;;;;;;;10.82;94.41;100149.00;4916151;29;20043;-45
2022/05/24 05:29:07;;;;;;;27.92;8.50;;;;;;;10.83;94.09;100137.88;4915843;29;20531;-44
2022/05/24 05:31:32;;;;;;;28.23;8.70;;;;;;;10.84;94.07;100138.72;4916531;29;20020;-44
2022/05/24 05:34:00;;;;;;;26.98;8.52;;;;;;;10.82;93.84;100151.59;4915894;29;20028;-43
2022/05/24 05:36:27;;;;;;;23.35;7.82;;;;;;;10.82;94.43;100145.53;4915932;29;20032;-43
2022/05/24 05:38:53;;;;;;;27.98;8.27;;;;;;;10.81;93.91;100138.69;4916592;29;20031;-44
2022/05/24 05:41:22;;;;;;;23.00;8.80;;;;;;;10.81;94.04;100142.13;4915953;29;20110;-44
2022/05/24 05:43:48;;;;;;;26.27;8.93;;;;;;;10.82;94.05;100141.28;4915884;29;20032;-43
2022/05/24 05:46:15;;;;;;;29.60;8.98;;;;;;;10.83;93.29;100135.28;4917485;29;20028;-43
2022/05/24 05:48:41;;;;;;;28.00;8.57;;;;;;;10.84;92.93;100146.44;4919626;29;20087;-43
2022/05/24 05:51:08;;;;;;;30.52;8.02;;;;;;;10.86;93.15;100150.78;4919251;29;20032;-44
2022/05/24 05:53:34;;;;;;;27.58;7.97;;;;;;;10.85;92.66;100148.19;4920009;29;20032;-43
2022/05/24 05:56:00;;;;;;;23.70;7.70;;;;;;;10.81;92.79;100154.16;4919429;29;20424;-44
2022/05/24 05:58:25;;;;;;;32.55;8.27;;;;;;;10.75;93.14;100165.19;4919135;29;20419;-43
2022/05/24 06:00:52;;;;;;;24.80;8.20;;;;;;;10.71;92.82;100168.56;4919815;29;20027;-43
2022/05/24 06:03:17;;;;;;;43.75;8.35;;;;;;;10.66;93.29;100175.34;4919133;29;20070;-44
2022/05/24 06:05:44;;;;;;;25.23;8.25;;;;;;;10.65;93.87;100191.63;4919244;29;20484;-44
2022/05/24 06:08:09;;;;;;;23.00;7.75;;;;;;;10.64;93.22;100192.47;4919407;29;20032;-47
2022/05/24 06:10:36;;;;;;;28.05;7.55;;;;;;;10.62;93.03;100195.03;4919144;29;20433;-45
2022/05/24 06:13:02;;;;;;;21.50;8.02;;;;;;;10.69;93.60;100196.00;4919288;29;20484;-44
2022/05/24 06:15:27;;;;;;;24.60;7.97;;;;;;;10.74;92.34;100199.53;4919444;29;20060;-43
2022/05/24 06:17:54;;;;;;;23.50;7.97;;;;;;;10.82;92.67;100199.69;4918330;29;20044;-44
2022/05/24 06:20:22;;;;;;;26.42;7.93;;;;;;;10.95;91.67;100203.34;4919337;29;20028;-47
2022/05/24 06:22:49;;;;;;;34.25;8.25;;;;;;;11.03;91.36;100204.38;4919513;29;20052;-44
2022/05/24 06:25:16;;;;;;;28.35;8.68;;;;;;;11.07;90.58;100193.25;4918675;29;20079;-43
2022/05/24 06:27:41;;;;;;;27.05;8.10;;;;;;;11.19;91.32;100196.06;4919394;29;20038;-43
2022/05/24 06:30:07;;;;;;;28.05;8.27;;;;;;;11.23;89.56;100196.09;4918782;29;20023;-43
2022/05/24 06:32:32;;;;;;;27.83;9.02;;;;;;;11.28;88.72;100199.63;4918536;29;20037;-43
2022/05/24 06:34:58;;;;;;;31.88;8.90;;;;;;;11.34;89.52;100194.56;4919126;29;20029;-44
2022/05/24 06:37:24;;;;;;;31.17;8.45;;;;;;;11.43;89.53;100197.28;4918725;29;20395;-43
2022/05/24 06:39:49;;;;;;;28.13;8.57;;;;;;;11.53;88.47;100199.16;4918429;29;20428;-45
2022/05/24 06:42:15;;;;;;;23.80;8.43;;;;;;;11.61;89.11;100198.41;4918648;29;20016;-44
2022/05/24 06:44:41;;;;;;;21.13;7.88;;;;;;;11.69;88.79;100207.13;4918745;29;20108;-43
2022/05/24 06:47:07;;;;;;;21.85;7.35;;;;;;;11.68;84.74;100213.13;4918000;29;20107;-43
2022/05/24 06:49:33;;;;;;;30.33;8.10;;;;;;;11.67;85.69;100214.84;4918763;29;20115;-44
2022/05/24 06:51:58;;;;;;;22.35;6.82;;;;;;;11.72;84.64;100206.31;4918464;29;20036;-46
2022/05/24 06:54:24;;;;;;;27.02;7.53;;;;;;;11.82;85.05;100224.53;4918342;29;20028;-45
2022/05/24 06:56:49;;;;;;;28.20;7.85;;;;;;;11.95;84.72;100232.44;4918116;29;20032;-44
2022/05/24 07:04:42;;;;;;;20.65;6.40;;;;;;;12.50;80.17;100253.88;4919047;29;20083;-43
2022/05/24 07:07:08;;;;;;;20.35;5.95;;;;;;;12.58;80.13;100251.38;4917559;29;20032;-44
2022/05/24 07:09:33;;;;;;;21.40;6.40;;;;;;;12.72;78.82;100253.25;4918462;29;20369;-44
2022/05/24 07:11:59;;;;;;;24.48;6.35;;;;;;;12.78;78.25;100251.63;4917943;29;20476;-44
2022/05/24 07:14:25;;;;;;;24.15;7.00;;;;;;;12.90;79.94;100258.63;4917809;29;20099;-44
2022/05/24 07:16:51;;;;;;;25.13;8.02;;;;;;;12.98;77.65;100263.88;4918517;29;20028;-44
2022/05/24 07:19:17;;;;;;;17.52;7.22;;;;;;;12.99;76.79;100270.81;4917806;29;20059;-43
2022/05/24 07:21:42;;;;;;;24.55;7.35;;;;;;;12.96;76.98;100279.41;4917898;29;20036;-45
2022/05/24 07:24:07;;;;;;;19.77;9.57;;;;;;;12.86;75.94;100269.81;4917839;29;20092;-45
2022/05/24 07:26:32;;;;;;;18.02;9.73;;;;;;;12.81;75.52;100287.84;4917847;29;20507;-45
2022/05/24 07:28:58;;;;;;;21.40;10.45;;;;;;;12.65;76.05;100273.00;4917577;29;20036;-44
2022/05/24 07:31:23;;;;;;;22.77;10.82;;;;;;;12.60;76.84;100277.25;4918166;29;20028;-44
2022/05/24 07:33:48;;;;;;;23.55;11.73;;;;;;;12.63;75.93;100279.88;4917350;29;20036;-44
2022/05/24 07:36:14;;;;;;;20.50;11.70;;;;;;;12.74;75.04;100283.44;4917184;29;20043;-44
2022/05/24 07:38:39;;;;;;;17.20;11.63;;;;;;;12.94;76.65;100282.81;4918007;29;20063;-45
2022/05/24 07:46:49;;;;;;;17.20;9.82;;;;;;;13.46;72.97;100285.91;4896814;29;20370;-44
2022/05/24 07:49:15;;;;;;;16.77;9.80;;;;;;;13.54;73.12;100282.53;4912284;29;20544;-44
2022/05/24 07:51:41;;;;;;;24.73;10.00;;;;;;;13.62;73.29;100288.63;4917580;29;20028;-46
2022/05/24 07:54:07;;;;;;;17.17;9.57;;;;;;;13.59;73.06;100286.03;4917031;29;20461;-47
2022/05/24 07:56:32;;;;;;;22.45;10.32;;;;;;;13.56;73.04;100286.03;4917280;29;20040;-46
2022/05/24 07:58:57;;;;;;;25.70;12.18;;;;;;;13.63;72.91;100278.31;4917162;29;20174;-44
2022/05/24 08:01:23;;;;;;;27.00;11.85;;;;;;;13.62;72.54;100283.47;4917418;29;20028;-44
2022/05/24 08:03:50;;;;;;;27.15;10.23;;;;;;;13.84;73.10;100281.94;4916986;29;20030;-48
2022/05/24 08:06:15;;;;;;;21.58;7.82;;;;;;;13.92;70.82;100287.16;4917204;29;20048;-46
2022/05/24 08:08:41;;;;;;;17.95;7.63;;;;;;;14.06;71.44;100293.28;4916823;29;20032;-45
2022/05/24 08:11:06;;;;;;;18.48;7.95;;;;;;;14.22;69.12;100289.06;4916769;29;20103;-44
2022/05/24 08:13:31;;;;;;;15.55;8.98;;;;;;;14.26;69.16;100300.31;4917523;29;20127;-44
2022/05/24 08:15:57;;;;;;;23.00;8.52;;;;;;;14.09;68.59;100298.47;4917018;29;20043;-46
2022/05/24 08:18:24;;;;;;;21.50;8.98;;;;;;;13.99;69.52;100300.16;4916565;29;20075;-45
2022/05/24 08:20:50;;;;;;;20.63;8.90;;;;;;;14.05;69.87;100301.91;4917314;29;20038;-43
2022/05/24 08:23:18;;;;;;;15.63;8.05;;;;;;;14.02;69.51;100311.38;4916976;29;20055;-44
2022/05/24 08:25:44;;;;;;;17.10;9.40;;;;;;;13.93;69.35;100312.19;4916748;29;20060;-44
2022/05/24 08:28:09;;;;;;;19.90;9.48;;;;;;;13.87;70.38;100318.19;4917128;29;20040;-45
2022/05/24 08:30:37;;;;;;;26.40;11.55;;;;;;;14.02;69.33;100319.16;4917070;29;20028;-45
2022/05/24 08:33:06;;;;;;;19.92;10.77;;;;;;;14.26;69.36;100321.06;4916310;29;20039;-48
2022/05/24 08:35:34;;;;;;;21.65;11.88;;;;;;;14.29;67.60;100326.25;4917014;29;20419;-47
2022/05/24 08:38:01;;;;;;;20.67;12.52;;;;;;;14.19;66.87;100332.22;4916705;29;20032;-46
2022/05/24 08:40:27;;;;;;;18.90;12.73;;;;;;;14.01;68.25;100336.44;4916636;29;20048;-44
2022/05/24 08:43:29;;;;;;;22.85;12.13;;;;;;;13.89;68.28;100336.34;4917060;29;20115;-45
2022/05/24 08:48:48;;;;;;;23.70;12.52;;;;;;;13.40;69.11;100348.00;4917342;29;20071;-44
2022/05/24 08:51:23;;;;;;;21.58;11.85;;;;;;;13.20;70.51;100359.84;4916490;29;20079;-46
2022/05/24 08:53:52;;;;;;;25.10;12.77;;;;;;;13.06;73.72;100360.53;4916386;29;20417;-47
2022/05/24 08:56:21;;;;;;;19.20;11.23;;;;;;;13.00;74.41;100368.22;4916520;29;20054;-47
2022/05/24 08:58:50;;;;;;;26.15;11.07;;;;;;;13.02;75.08;100372.56;4916760;29;20115;-44
2022/05/24 09:01:23;;;;;;;22.85;11.02;;;;;;;13.13;72.29;100370.13;4916032;29;20503;-44
2022/05/24 09:03:49;;;;;;;16.60;10.48;;;;;;;13.47;71.92;100380.84;4916889;29;20024;-47
2022/05/24 09:06:24;;;;;;;16.55;8.98;;;;;;;13.79;69.95;100374.28;4916159;29;20039;-46
2022/05/24 09:09:08;;;;;;;18.30;11.65;;;;;;;13.88;68.55;100384.69;4916308;29;20032;-48
2022/05/24 09:11:56;;;;;;;18.83;8.70;;;;;;;13.83;68.88;100378.63;4916515;29;20496;-46
2022/05/24 09:14:36;;;;;;;19.50;9.05;;;;;;;13.77;68.54;100399.28;4916052;29;20388;-47
2022/05/24 09:17:21;;;;;;;16.90;8.70;;;;;;;13.66;68.84;100399.19;4916280;29;20102;-48
2022/05/24 09:19:46;;;;;;;16.42;7.80;;;;;;;13.62;69.96;100402.56;4917186;29;20040;-47
2022/05/24 09:22:12;;;;;;;15.65;8.43;;;;;;;13.78;70.03;100401.00;4919701;29;20039;-48
2022/05/24 09:24:44;;;;;;;17.40;8.50;;;;;;;13.86;69.42;100411.44;4920400;29;20484;-49
2022/05/24 09:27:20;;;;;;;16.83;8.18;;;;;;;13.89;68.09;100409.75;4919926;29;20040;-47
2022/05/24 09:29:54;;;;;;;17.55;8.20;;;;;;;14.27;68.26;100418.69;4919657;29;20051;-48
2022/05/24 09:32:21;;;;;;;17.20;8.80;;;;;;;14.57;67.50;100414.56;4919968;29;20035;-45
2022/05/24 09:34:46;;;;;;;15.40;9.93;;;;;;;14.67;65.15;100407.72;4919537;29;20060;-49
2022/05/24 09:37:20;;;;;;;24.15;11.45;;;;;;;14.56;65.64;100416.28;4919718;29;20083;-48
2022/05/24 09:39:58;;;;;;;18.65;10.80;;;;;;;14.43;67.67;100417.94;4919875;29;20076;-48
2022/05/24 09:42:28;;;;;;;39.08;13.15;;;;;;;14.30;67.26;100426.47;4919746;29;20032;-50
2022/05/24 09:45:06;;;;;;;84.60;14.98;;;;;;;14.12;67.44;100433.25;4920097;29;20091;-46
2022/05/24 09:47:53;;;;;;;21.67;12.48;;;;;;;13.99;67.28;100446.97;4919866;29;20055;-49
2022/05/24 09:50:23;;;;;;;18.10;12.50;;;;;;;14.15;67.36;100441.06;4919015;29;20024;-49
2022/05/24 09:53:08;;;;;;;20.98;11.45;;;;;;;14.65;66.32;100433.66;4920125;29;20087;-48
2022/05/24 09:55:59;;;;;;;19.17;12.68;;;;;;;15.07;62.88;100439.94;4919941;29;20114;-44
2022/05/24 09:58:35;;;;;;;15.93;11.52;;;;;;;15.38;64.10;100437.47;4919730;29;20034;-49
2022/05/24 10:01:09;;;;;;;18.58;13.75;;;;;;;15.50;63.32;100440.97;4919332;29;20040;-48
2022/05/24 10:03:44;;;;;;;22.55;15.00;;;;;;;15.44;63.59;100445.28;4919103;29;20500;-47
2022/05/24 10:06:12;;;;;;;23.67;15.10;;;;;;;15.61;62.00;100428.88;4919465;29;20431;-49
2022/05/24 10:08:47;;;;;;;22.35;16.45;;;;;;;15.92;60.97;100436.72;4919439;29;20142;-48
2022/05/24 10:11:37;;;;;;;24.48;17.05;;;;;;;15.97;59.14;100437.59;4918895;29;20031;-47
2022/05/24 10:14:24;;;;;;;24.92;17.65;;;;;;;15.74;59.71;100446.22;4919492;29;20087;-46
2022/05/24 10:17:09;;;;;;;21.58;16.65;;;;;;;15.41;60.50;100453.06;4918988;29;20028;-48
2022/05/24 10:19:53;;;;;;;20.17;15.68;;;;;;;15.15;61.32;100456.41;4919522;29;20506;-45
2022/05/24 10:22:32;;;;;;;27.40;13.80;;;;;;;14.91;62.22;100462.38;4919181;29;20107;-49
2022/05/24 10:24:57;;;;;;;20.35;10.27;;;;;;;14.62;61.70;100464.75;4918715;29;20091;-46
2022/05/24 10:27:54;;;;;;;14.03;9.57;;;;;;;14.44;63.81;100460.28;4919189;29;20032;-48
2022/05/24 10:30:31;;;;;;;11.48;8.20;;;;;;;14.16;64.12;100476.50;4919050;29;20043;-48
2022/05/24 10:39:15;;;;;;;13.35;8.30;;;;;;;14.24;66.70;100488.63;4918375;29;20120;-48
2022/05/24 10:42:06;;;;;;;15.30;6.38;;;;;;;14.28;65.88;100491.28;4919119;29;20055;-49
2022/05/24 10:44:32;;;;;;;14.25;5.63;;;;;;;14.30;64.97;100493.88;4918749;29;20028;-47
2022/05/24 10:47:24;;;;;;;10.43;5.77;;;;;;;14.78;65.90;100496.88;4918278;29;20087;-47
2022/05/24 10:50:01;;;;;;;11.50;5.15;;;;;;;15.53;64.11;100499.00;4918867;29;20460;-47
2022/05/24 10:53:00;;;;;;;8.95;5.53;;;;;;;15.54;62.18;100494.66;4918347;29;20024;-48
2022/05/24 10:55:31;;;;;;;11.18;5.40;;;;;;;15.22;62.76;100487.59;4918755;29;20392;-48
2022/05/24 10:58:01;;;;;;;13.13;6.13;;;;;;;15.03;61.67;100490.13;4918515;29;20095;-44
2022/05/24 11:00:34;;;;;;;9.70;5.68;;;;;;;16.03;61.46;100488.75;4918171;29;20544;-48
2022/05/24 11:03:15;;;;;;;9.27;5.43;;;;;;;17.45;58.62;100488.56;4918544;29;20035;-48
2022/05/24 11:05:46;;;;;;;8.20;4.95;;;;;;;17.93;55.25;100480.50;4918346;29;20032;-48
2022/05/24 11:08:39;;;;;;;9.32;5.10;;;;;;;17.47;54.27;100480.72;4917897;29;20058;-49
2022/05/24 11:11:21;;;;;;;7.82;5.35;;;;;;;16.71;55.54;100486.16;4918143;29;20055;-48
2022/05/24 11:14:13;;;;;;;13.80;6.00;;;;;;;16.45;59.05;100495.69;4917856;29;20051;-48
2022/05/24 11:16:42;;;;;;;9.85;6.63;;;;;;;17.32;56.61;100492.94;4918555;29;20068;-47
2022/05/24 11:19:12;;;;;;;14.57;6.72;;;;;;;18.31;53.43;100481.97;4917608;29;20055;-49
2022/05/24 11:21:45;;;;;;;11.07;6.20;;;;;;;19.32;50.99;100483.56;4917790;29;20040;-48
2022/05/24 11:24:21;;;;;;;12.02;7.07;;;;;;;19.90;48.80;100482.78;4918018;29;20031;-49
2022/05/24 11:26:54;;;;;;;10.77;7.68;;;;;;;20.90;46.99;100484.66;4918438;29;20028;-45
2022/05/24 11:29:28;;;;;;;15.50;7.38;;;;;;;21.23;45.27;100495.38;4917559;29;20024;-50
2022/05/24 11:32:01;;;;;;;11.00;7.03;;;;;;;20.70;46.21;100485.03;4918003;29;20051;-49
2022/05/24 11:34:31;;;;;;;12.23;6.45;;;;;;;19.87;47.02;100493.31;4917573;29;20028;-50
2022/05/24 11:37:29;;;;;;;12.52;7.78;;;;;;;18.99;52.31;100497.03;4918018;29;20040;-45
2022/05/24 11:39:55;;;;;;;11.13;7.05;;;;;;;18.51;54.42;100507.88;4917918;29;20043;-48
2022/05/24 11:42:42;;;;;;;17.17;6.20;;;;;;;18.57;51.35;100499.13;4917243;29;20030;-48
2022/05/24 11:45:29;;;;;;;10.48;5.28;;;;;;;19.70;49.30;100500.50;4916940;29;20476;-48
2022/05/24 11:47:54;;;;;;;13.35;7.38;;;;;;;20.72;44.60;100498.94;4918075;29;20115;-49
2022/05/24 11:50:31;;;;;;;13.20;7.47;;;;;;;21.62;42.49;100498.06;4917024;29;20132;-49
2022/05/24 11:53:37;;;;;;;9.98;7.38;;;;;;;21.95;43.20;100506.09;4917310;29;20288;-47
2022/05/24 11:56:08;;;;;;;10.23;7.63;;;;;;;22.22;40.22;100510.72;4911036;29;20047;-49
2022/05/24 11:58:33;;;;;;;11.80;7.57;;;;;;;22.00;38.95;100504.22;4917731;29;20051;-49